sensor_id;sensor_type;location;lat;lon;timestamp;temperature;humidity
17252;DHT22;8742;51.716;8.790;2022-10-16T00:01:07;14.00;99.90
17252;DHT22;8742;51.716;8.790;2022-10-16T00:03:35;14.00;99.90
17252;DHT22;8742;51.716;8.790;2022-10-16T00:06:02;14.10;99.90
17252;DHT22;8742;51.716;8.790;2022-10-16T00:08:29;14.10;99.90
17252;DHT22;8742;51.716;8.790;2022-10-16T00:11:00;14.00;99.90
17252;DHT22;8742;51.716;8.790;2022-10-16T00:13:28;14.00;99.90
17252;DHT22;8742;51.716;8.790;2022-10-16T00:16:11;14.10;99.90
17252;DHT22;8742;51.716;8.790;2022-10-16T00:18:39;14.10;99.90
17252;DHT22;8742;51.716;8.790;2022-10-16T00:21:08;14.10;99.90
17252;DHT22;8742;51.716;8.790;2022-10-16T00:23:36;14.10;99.90
17252;DHT22;8742;51.716;8.790;2022-10-16T00:26:05;14.10;99.90
17252;DHT22;8742;51.716;8.790;2022-10-16T00:28:35;14.10;99.90
17252;DHT22;8742;51.716;8.790;2022-10-16T00:31:03;14.10;99.90
17252;DHT22;8742;51.716;8.790;2022-10-16T00:33:31;14.10;99.90
17252;DHT22;8742;51.716;8.790;2022-10-16T00:35:58;14.10;99.90
17252;DHT22;8742;51.716;8.790;2022-10-16T00:38:25;14.10;99.90
17252;DHT22;8742;51.716;8.790;2022-10-16T00:40:52;14.10;99.90
17252;DHT22;8742;51.716;8.790;2022-10-16T00:43:36;14.10;99.90
17252;DHT22;8742;51.716;8.790;2022-10-16T00:46:04;14.10;99.90
17252;DHT22;8742;51.716;8.790;2022-10-16T00:48:32;14.00;99.90
17252;DHT22;8742;51.716;8.790;2022-10-16T00:50:59;14.00;99.90
17252;DHT22;8742;51.716;8.790;2022-10-16T00:53:27;14.00;99.90
17252;DHT22;8742;51.716;8.790;2022-10-16T00:55:54;13.90;99.90
17252;DHT22;8742;51.716;8.790;2022-10-16T00:58:21;13.90;99.90
17252;DHT22;8742;51.716;8.790;2022-10-16T01:00:49;13.90;99.90
17252;DHT22;8742;51.716;8.790;2022-10-16T01:03:25;13.90;99.90
17252;DHT22;8742;51.716;8.790;2022-10-16T01:06:01;13.90;99.90
17252;DHT22;8742;51.716;8.790;2022-10-16T01:08:44;13.90;99.90
17252;DHT22;8742;51.716;8.790;2022-10-16T01:11:19;14.00;99.90
17252;DHT22;8742;51.716;8.790;2022-10-16T01:13:51;13.90;99.90
17252;DHT22;8742;51.716;8.790;2022-10-16T01:16:28;13.90;99.90
17252;DHT22;8742;51.716;8.790;2022-10-16T01:19:01;13.90;99.90
17252;DHT22;8742;51.716;8.790;2022-10-16T01:21:34;13.90;99.90
17252;DHT22;8742;51.716;8.790;2022-10-16T01:24:09;13.90;99.90
17252;DHT22;8742;51.716;8.790;2022-10-16T01:26:50;13.90;99.90
17252;DHT22;8742;51.716;8.790;2022-10-16T01:29:25;13.90;99.90
17252;DHT22;8742;51.716;8.790;2022-10-16T01:31:55;13.90;99.90
17252;DHT22;8742;51.716;8.790;2022-10-16T01:34:30;13.90;99.90
17252;DHT22;8742;51.716;8.790;2022-10-16T01:37:06;13.90;99.90
17252;DHT22;8742;51.716;8.790;2022-10-16T01:39:35;13.90;99.90
17252;DHT22;8742;51.716;8.790;2022-10-16T01:42:09;13.90;99.90
17252;DHT22;8742;51.716;8.790;2022-10-16T01:44:42;13.90;99.90
17252;DHT22;8742;51.716;8.790;2022-10-16T01:47:10;13.90;99.90
17252;DHT22;8742;51.716;8.790;2022-10-16T01:49:40;13.90;99.90
17252;DHT22;8742;51.716;8.790;2022-10-16T01:52:10;13.90;99.90
17252;DHT22;8742;51.716;8.790;2022-10-16T01:54:41;13.90;99.90
17252;DHT22;8742;51.716;8.790;2022-10-16T01:57:10;13.90;99.90
17252;DHT22;8742;51.716;8.790;2022-10-16T01:59:43;13.90;99.90
17252;DHT22;8742;51.716;8.790;2022-10-16T02:02:11;13.90;99.90
17252;DHT22;8742;51.716;8.790;2022-10-16T02:04:43;13.90;99.90
17252;DHT22;8742;51.716;8.790;2022-10-16T02:07:12;13.90;99.90
17252;DHT22;8742;51.716;8.790;2022-10-16T02:09:39;13.90;99.90
17252;DHT22;8742;51.716;8.790;2022-10-16T02:12:09;13.90;99.90
17252;DHT22;8742;51.716;8.790;2022-10-16T02:14:40;13.90;99.90
17252;DHT22;8742;51.716;8.790;2022-10-16T02:17:12;13.90;99.90
17252;DHT22;8742;51.716;8.790;2022-10-16T02:19:40;13.90;99.90
17252;DHT22;8742;51.716;8.790;2022-10-16T02:22:11;14.00;99.90
17252;DHT22;8742;51.716;8.790;2022-10-16T02:24:46;14.00;99.90
17252;DHT22;8742;51.716;8.790;2022-10-16T02:27:18;14.00;99.90
17252;DHT22;8742;51.716;8.790;2022-10-16T02:29:51;14.00;99.90
17252;DHT22;8742;51.716;8.790;2022-10-16T02:32:25;14.00;99.90
17252;DHT22;8742;51.716;8.790;2022-10-16T02:34:54;14.00;99.90
17252;DHT22;8742;51.716;8.790;2022-10-16T02:37:21;14.00;99.90
17252;DHT22;8742;51.716;8.790;2022-10-16T02:39:48;14.00;99.90
17252;DHT22;8742;51.716;8.790;2022-10-16T02:42:17;14.00;99.90
17252;DHT22;8742;51.716;8.790;2022-10-16T02:44:44;14.00;99.90
17252;DHT22;8742;51.716;8.790;2022-10-16T02:47:13;14.00;99.90
17252;DHT22;8742;51.716;8.790;2022-10-16T02:49:39;14.00;99.90
17252;DHT22;8742;51.716;8.790;2022-10-16T02:52:06;14.10;99.90
17252;DHT22;8742;51.716;8.790;2022-10-16T02:54:33;14.10;99.90
17252;DHT22;8742;51.716;8.790;2022-10-16T02:57:00;14.10;99.90
17252;DHT22;8742;51.716;8.790;2022-10-16T02:59:27;14.10;99.90
17252;DHT22;8742;51.716;8.790;2022-10-16T03:01:54;14.10;99.90
17252;DHT22;8742;51.716;8.790;2022-10-16T03:04:22;14.10;99.90
17252;DHT22;8742;51.716;8.790;2022-10-16T03:06:49;14.00;99.90
17252;DHT22;8742;51.716;8.790;2022-10-16T03:09:15;14.00;99.90
17252;DHT22;8742;51.716;8.790;2022-10-16T03:11:42;14.00;99.90
17252;DHT22;8742;51.716;8.790;2022-10-16T03:14:09;13.90;99.90
17252;DHT22;8742;51.716;8.790;2022-10-16T03:16:36;14.00;99.90
17252;DHT22;8742;51.716;8.790;2022-10-16T03:19:03;14.00;99.90
17252;DHT22;8742;51.716;8.790;2022-10-16T03:21:31;13.90;99.90
17252;DHT22;8742;51.716;8.790;2022-10-16T03:23:58;13.90;99.90
17252;DHT22;8742;51.716;8.790;2022-10-16T03:26:25;13.90;99.90
17252;DHT22;8742;51.716;8.790;2022-10-16T03:28:51;13.90;99.90
17252;DHT22;8742;51.716;8.790;2022-10-16T03:31:28;14.00;99.90
17252;DHT22;8742;51.716;8.790;2022-10-16T03:33:55;14.00;99.90
17252;DHT22;8742;51.716;8.790;2022-10-16T03:36:22;14.00;99.90
17252;DHT22;8742;51.716;8.790;2022-10-16T03:38:51;14.00;99.90
17252;DHT22;8742;51.716;8.790;2022-10-16T03:41:17;14.00;99.90
17252;DHT22;8742;51.716;8.790;2022-10-16T03:43:44;13.90;99.90
17252;DHT22;8742;51.716;8.790;2022-10-16T03:46:11;14.00;99.90
17252;DHT22;8742;51.716;8.790;2022-10-16T03:48:38;13.90;99.90
17252;DHT22;8742;51.716;8.790;2022-10-16T03:51:05;13.90;99.90
17252;DHT22;8742;51.716;8.790;2022-10-16T03:53:32;13.90;99.90
17252;DHT22;8742;51.716;8.790;2022-10-16T03:56:00;13.90;99.90
17252;DHT22;8742;51.716;8.790;2022-10-16T03:58:27;13.90;99.90
17252;DHT22;8742;51.716;8.790;2022-10-16T04:00:55;13.90;99.90
17252;DHT22;8742;51.716;8.790;2022-10-16T04:03:22;14.00;99.90
17252;DHT22;8742;51.716;8.790;2022-10-16T04:05:49;14.00;99.90
17252;DHT22;8742;51.716;8.790;2022-10-16T04:08:16;14.00;99.90
17252;DHT22;8742;51.716;8.790;2022-10-16T04:10:43;14.00;99.90
17252;DHT22;8742;51.716;8.790;2022-10-16T04:13:12;14.00;99.90
17252;DHT22;8742;51.716;8.790;2022-10-16T04:15:40;14.00;99.90
17252;DHT22;8742;51.716;8.790;2022-10-16T04:18:10;14.00;99.90
17252;DHT22;8742;51.716;8.790;2022-10-16T04:20:37;14.00;99.90
17252;DHT22;8742;51.716;8.790;2022-10-16T04:23:04;14.00;99.90
17252;DHT22;8742;51.716;8.790;2022-10-16T04:25:31;14.00;99.90
17252;DHT22;8742;51.716;8.790;2022-10-16T04:27:58;14.00;99.90
17252;DHT22;8742;51.716;8.790;2022-10-16T04:30:26;14.10;99.90
17252;DHT22;8742;51.716;8.790;2022-10-16T04:32:53;14.10;99.90
17252;DHT22;8742;51.716;8.790;2022-10-16T04:35:21;14.20;99.90
17252;DHT22;8742;51.716;8.790;2022-10-16T04:37:48;14.20;99.90
17252;DHT22;8742;51.716;8.790;2022-10-16T04:40:16;14.20;99.90
17252;DHT22;8742;51.716;8.790;2022-10-16T04:42:43;14.20;99.90
17252;DHT22;8742;51.716;8.790;2022-10-16T04:45:10;14.20;99.90
17252;DHT22;8742;51.716;8.790;2022-10-16T04:47:38;14.20;99.90
17252;DHT22;8742;51.716;8.790;2022-10-16T04:50:05;14.20;99.90
17252;DHT22;8742;51.716;8.790;2022-10-16T04:52:32;14.10;99.90
17252;DHT22;8742;51.716;8.790;2022-10-16T04:54:59;14.10;99.90
17252;DHT22;8742;51.716;8.790;2022-10-16T04:57:28;14.10;99.90
17252;DHT22;8742;51.716;8.790;2022-10-16T04:59:55;14.20;99.90
17252;DHT22;8742;51.716;8.790;2022-10-16T05:02:22;14.20;99.90
17252;DHT22;8742;51.716;8.790;2022-10-16T05:04:53;14.20;99.90
17252;DHT22;8742;51.716;8.790;2022-10-16T05:07:20;14.30;99.90
17252;DHT22;8742;51.716;8.790;2022-10-16T05:09:47;14.30;99.90
17252;DHT22;8742;51.716;8.790;2022-10-16T05:12:13;14.30;99.90
17252;DHT22;8742;51.716;8.790;2022-10-16T05:14:40;14.30;99.90
17252;DHT22;8742;51.716;8.790;2022-10-16T05:17:07;14.30;99.90
17252;DHT22;8742;51.716;8.790;2022-10-16T05:19:34;14.30;99.90
17252;DHT22;8742;51.716;8.790;2022-10-16T05:22:02;14.30;99.90
17252;DHT22;8742;51.716;8.790;2022-10-16T05:24:29;14.30;99.90
17252;DHT22;8742;51.716;8.790;2022-10-16T05:26:56;14.30;99.90
17252;DHT22;8742;51.716;8.790;2022-10-16T05:29:23;14.30;99.90
17252;DHT22;8742;51.716;8.790;2022-10-16T05:31:51;14.20;99.90
17252;DHT22;8742;51.716;8.790;2022-10-16T05:34:18;14.20;99.90
17252;DHT22;8742;51.716;8.790;2022-10-16T05:36:45;14.20;99.90
17252;DHT22;8742;51.716;8.790;2022-10-16T05:39:14;14.20;99.90
17252;DHT22;8742;51.716;8.790;2022-10-16T05:41:41;14.20;99.90
17252;DHT22;8742;51.716;8.790;2022-10-16T05:44:08;14.20;99.90
17252;DHT22;8742;51.716;8.790;2022-10-16T05:46:35;14.20;99.90
17252;DHT22;8742;51.716;8.790;2022-10-16T05:49:02;14.20;99.90
17252;DHT22;8742;51.716;8.790;2022-10-16T05:51:28;14.20;99.90
17252;DHT22;8742;51.716;8.790;2022-10-16T05:53:55;14.10;99.90
17252;DHT22;8742;51.716;8.790;2022-10-16T05:56:25;14.10;99.90
17252;DHT22;8742;51.716;8.790;2022-10-16T05:58:52;14.10;99.90
17252;DHT22;8742;51.716;8.790;2022-10-16T06:01:19;14.10;99.90
17252;DHT22;8742;51.716;8.790;2022-10-16T06:03:49;14.10;99.90
17252;DHT22;8742;51.716;8.790;2022-10-16T06:06:17;14.10;99.90
17252;DHT22;8742;51.716;8.790;2022-10-16T06:08:46;14.10;99.90
17252;DHT22;8742;51.716;8.790;2022-10-16T06:11:14;14.10;99.90
17252;DHT22;8742;51.716;8.790;2022-10-16T06:13:42;14.10;99.90
17252;DHT22;8742;51.716;8.790;2022-10-16T06:16:11;14.10;99.90
17252;DHT22;8742;51.716;8.790;2022-10-16T06:18:39;14.10;99.90
17252;DHT22;8742;51.716;8.790;2022-10-16T06:21:08;14.10;99.90
17252;DHT22;8742;51.716;8.790;2022-10-16T06:23:35;14.20;99.90
17252;DHT22;8742;51.716;8.790;2022-10-16T06:26:06;14.30;99.90
17252;DHT22;8742;51.716;8.790;2022-10-16T06:28:34;14.30;99.90
17252;DHT22;8742;51.716;8.790;2022-10-16T06:31:13;14.30;99.90
17252;DHT22;8742;51.716;8.790;2022-10-16T06:33:41;14.40;99.90
17252;DHT22;8742;51.716;8.790;2022-10-16T06:36:11;14.50;99.90
17252;DHT22;8742;51.716;8.790;2022-10-16T06:38:40;14.60;99.90
17252;DHT22;8742;51.716;8.790;2022-10-16T06:41:08;14.70;99.90
17252;DHT22;8742;51.716;8.790;2022-10-16T06:43:36;14.80;99.90
17252;DHT22;8742;51.716;8.790;2022-10-16T06:46:05;14.80;99.90
17252;DHT22;8742;51.716;8.790;2022-10-16T06:48:34;14.90;99.90
17252;DHT22;8742;51.716;8.790;2022-10-16T06:51:03;14.90;99.90
17252;DHT22;8742;51.716;8.790;2022-10-16T06:53:31;15.00;99.90
17252;DHT22;8742;51.716;8.790;2022-10-16T06:56:06;15.00;99.90
17252;DHT22;8742;51.716;8.790;2022-10-16T06:58:43;15.10;99.90
17252;DHT22;8742;51.716;8.790;2022-10-16T07:01:12;15.10;99.90
17252;DHT22;8742;51.716;8.790;2022-10-16T07:03:40;15.20;99.90
17252;DHT22;8742;51.716;8.790;2022-10-16T07:06:10;15.20;99.90
17252;DHT22;8742;51.716;8.790;2022-10-16T07:08:38;15.20;99.90
17252;DHT22;8742;51.716;8.790;2022-10-16T07:11:07;15.20;99.90
17252;DHT22;8742;51.716;8.790;2022-10-16T07:13:35;15.30;99.90
17252;DHT22;8742;51.716;8.790;2022-10-16T07:16:06;15.30;99.90
17252;DHT22;8742;51.716;8.790;2022-10-16T07:18:40;15.40;99.90
17252;DHT22;8742;51.716;8.790;2022-10-16T07:21:10;15.50;99.90
17252;DHT22;8742;51.716;8.790;2022-10-16T07:23:52;15.60;99.90
17252;DHT22;8742;51.716;8.790;2022-10-16T07:26:19;15.70;99.90
17252;DHT22;8742;51.716;8.790;2022-10-16T07:28:46;15.70;99.90
17252;DHT22;8742;51.716;8.790;2022-10-16T07:31:15;15.80;99.90
17252;DHT22;8742;51.716;8.790;2022-10-16T07:33:45;15.70;99.90
17252;DHT22;8742;51.716;8.790;2022-10-16T07:36:13;15.80;99.90
17252;DHT22;8742;51.716;8.790;2022-10-16T07:38:41;15.70;99.90
17252;DHT22;8742;51.716;8.790;2022-10-16T07:41:11;15.70;99.90
17252;DHT22;8742;51.716;8.790;2022-10-16T07:43:38;15.80;99.90
17252;DHT22;8742;51.716;8.790;2022-10-16T07:46:05;15.80;99.90
17252;DHT22;8742;51.716;8.790;2022-10-16T07:48:33;16.00;99.90
17252;DHT22;8742;51.716;8.790;2022-10-16T07:51:09;16.00;99.90
17252;DHT22;8742;51.716;8.790;2022-10-16T07:53:54;16.10;99.90
17252;DHT22;8742;51.716;8.790;2022-10-16T07:56:22;16.20;99.90
17252;DHT22;8742;51.716;8.790;2022-10-16T07:58:50;16.30;99.90
17252;DHT22;8742;51.716;8.790;2022-10-16T08:01:18;16.40;99.90
17252;DHT22;8742;51.716;8.790;2022-10-16T08:03:46;16.60;99.90
17252;DHT22;8742;51.716;8.790;2022-10-16T08:06:16;16.70;99.90
17252;DHT22;8742;51.716;8.790;2022-10-16T08:08:43;16.90;99.90
17252;DHT22;8742;51.716;8.790;2022-10-16T08:11:10;17.10;99.90
17252;DHT22;8742;51.716;8.790;2022-10-16T08:13:37;17.30;99.90
17252;DHT22;8742;51.716;8.790;2022-10-16T08:16:05;17.50;99.90
17252;DHT22;8742;51.716;8.790;2022-10-16T08:18:34;18.00;99.90
17252;DHT22;8742;51.716;8.790;2022-10-16T08:21:02;18.80;99.90
17252;DHT22;8742;51.716;8.790;2022-10-16T08:23:46;19.70;99.90
17252;DHT22;8742;51.716;8.790;2022-10-16T08:26:13;20.30;99.90
17252;DHT22;8742;51.716;8.790;2022-10-16T08:28:40;20.50;99.90
17252;DHT22;8742;51.716;8.790;2022-10-16T08:31:08;20.60;99.90
17252;DHT22;8742;51.716;8.790;2022-10-16T08:33:40;20.70;99.90
17252;DHT22;8742;51.716;8.790;2022-10-16T08:36:10;20.90;99.90
17252;DHT22;8742;51.716;8.790;2022-10-16T08:38:37;21.30;99.90
17252;DHT22;8742;51.716;8.790;2022-10-16T08:44:44;21.90;99.90
17252;DHT22;8742;51.716;8.790;2022-10-16T08:47:18;22.00;99.90
17252;DHT22;8742;51.716;8.790;2022-10-16T08:50:10;22.10;99.90
17252;DHT22;8742;51.716;8.790;2022-10-16T08:52:41;21.90;99.90
17252;DHT22;8742;51.716;8.790;2022-10-16T08:55:19;22.00;99.90
17252;DHT22;8742;51.716;8.790;2022-10-16T08:57:49;22.40;99.90
17252;DHT22;8742;51.716;8.790;2022-10-16T09:00:18;22.70;99.90
17252;DHT22;8742;51.716;8.790;2022-10-16T09:02:50;22.80;99.90
17252;DHT22;8742;51.716;8.790;2022-10-16T09:08:43;22.00;99.90
17252;DHT22;8742;51.716;8.790;2022-10-16T09:11:16;21.60;99.90
17252;DHT22;8742;51.716;8.790;2022-10-16T09:14:03;21.20;99.90
17252;DHT22;8742;51.716;8.790;2022-10-16T09:16:37;21.30;99.90
17252;DHT22;8742;51.716;8.790;2022-10-16T09:19:13;21.00;99.90
17252;DHT22;8742;51.716;8.790;2022-10-16T09:21:44;21.10;99.90
17252;DHT22;8742;51.716;8.790;2022-10-16T09:24:14;21.30;99.90
17252;DHT22;8742;51.716;8.790;2022-10-16T09:26:42;21.50;99.90
17252;DHT22;8742;51.716;8.790;2022-10-16T09:29:11;21.50;99.90
17252;DHT22;8742;51.716;8.790;2022-10-16T09:31:40;21.70;99.90
17252;DHT22;8742;51.716;8.790;2022-10-16T09:34:20;22.30;99.90
17252;DHT22;8742;51.716;8.790;2022-10-16T09:36:53;22.20;99.90
17252;DHT22;8742;51.716;8.790;2022-10-16T09:39:20;22.00;99.90
17252;DHT22;8742;51.716;8.790;2022-10-16T09:41:47;21.70;99.90
17252;DHT22;8742;51.716;8.790;2022-10-16T09:44:21;21.30;99.90
17252;DHT22;8742;51.716;8.790;2022-10-16T09:47:01;21.10;99.90
17252;DHT22;8742;51.716;8.790;2022-10-16T09:49:28;20.60;99.90
17252;DHT22;8742;51.716;8.790;2022-10-16T09:52:15;20.20;99.90
17252;DHT22;8742;51.716;8.790;2022-10-16T09:54:51;19.90;99.90
17252;DHT22;8742;51.716;8.790;2022-10-16T09:57:19;19.80;99.90
17252;DHT22;8742;51.716;8.790;2022-10-16T09:59:47;20.20;99.90
17252;DHT22;8742;51.716;8.790;2022-10-16T10:02:17;20.70;99.90
17252;DHT22;8742;51.716;8.790;2022-10-16T10:04:49;21.60;99.90
17252;DHT22;8742;51.716;8.790;2022-10-16T10:07:18;21.80;99.90
17252;DHT22;8742;51.716;8.790;2022-10-16T10:09:46;21.70;99.90
17252;DHT22;8742;51.716;8.790;2022-10-16T10:12:19;21.90;99.90
17252;DHT22;8742;51.716;8.790;2022-10-16T10:15:04;22.70;99.90
17252;DHT22;8742;51.716;8.790;2022-10-16T10:17:46;23.80;99.90
17252;DHT22;8742;51.716;8.790;2022-10-16T10:20:23;24.80;99.90
17252;DHT22;8742;51.716;8.790;2022-10-16T10:22:51;25.10;99.90
17252;DHT22;8742;51.716;8.790;2022-10-16T10:25:39;24.80;99.90
17252;DHT22;8742;51.716;8.790;2022-10-16T10:28:25;24.40;99.90
17252;DHT22;8742;51.716;8.790;2022-10-16T10:30:59;23.80;99.90
17252;DHT22;8742;51.716;8.790;2022-10-16T10:33:37;23.10;99.90
17252;DHT22;8742;51.716;8.790;2022-10-16T10:36:16;23.40;99.90
17252;DHT22;8742;51.716;8.790;2022-10-16T10:38:57;24.10;99.90
17252;DHT22;8742;51.716;8.790;2022-10-16T10:44:39;25.10;99.90
17252;DHT22;8742;51.716;8.790;2022-10-16T10:47:18;25.40;99.90
17252;DHT22;8742;51.716;8.790;2022-10-16T10:49:56;25.90;99.10
17252;DHT22;8742;51.716;8.790;2022-10-16T10:52:43;25.80;99.40
17252;DHT22;8742;51.716;8.790;2022-10-16T10:55:21;25.90;99.20
17252;DHT22;8742;51.716;8.790;2022-10-16T11:00:59;26.60;96.30
17252;DHT22;8742;51.716;8.790;2022-10-16T11:03:41;26.80;94.60
17252;DHT22;8742;51.716;8.790;2022-10-16T11:06:15;27.10;96.90
17252;DHT22;8742;51.716;8.790;2022-10-16T11:08:52;27.70;96.20
17252;DHT22;8742;51.716;8.790;2022-10-16T11:11:24;28.10;93.70
17252;DHT22;8742;51.716;8.790;2022-10-16T11:13:55;28.40;94.80
17252;DHT22;8742;51.716;8.790;2022-10-16T11:16:27;28.40;92.50
17252;DHT22;8742;51.716;8.790;2022-10-16T11:18:58;28.50;92.00
17252;DHT22;8742;51.716;8.790;2022-10-16T11:21:31;28.10;92.20
17252;DHT22;8742;51.716;8.790;2022-10-16T11:24:06;27.60;92.30
17252;DHT22;8742;51.716;8.790;2022-10-16T11:26:48;27.60;93.50
17252;DHT22;8742;51.716;8.790;2022-10-16T11:29:27;27.70;90.20
17252;DHT22;8742;51.716;8.790;2022-10-16T11:31:59;26.80;90.90
17252;DHT22;8742;51.716;8.790;2022-10-16T11:34:30;26.60;92.30
17252;DHT22;8742;51.716;8.790;2022-10-16T11:37:05;26.90;92.10
17252;DHT22;8742;51.716;8.790;2022-10-16T11:39:33;27.30;91.90
17252;DHT22;8742;51.716;8.790;2022-10-16T11:42:04;27.40;91.60
17252;DHT22;8742;51.716;8.790;2022-10-16T11:44:51;27.70;90.10
17252;DHT22;8742;51.716;8.790;2022-10-16T11:47:30;28.20;88.10
17252;DHT22;8742;51.716;8.790;2022-10-16T11:50:01;28.50;87.40
17252;DHT22;8742;51.716;8.790;2022-10-16T11:52:36;28.80;85.30
17252;DHT22;8742;51.716;8.790;2022-10-16T11:55:13;29.00;85.50
17252;DHT22;8742;51.716;8.790;2022-10-16T11:57:45;29.10;81.60
17252;DHT22;8742;51.716;8.790;2022-10-16T12:00:21;29.00;81.70
17252;DHT22;8742;51.716;8.790;2022-10-16T12:02:55;28.90;81.40
17252;DHT22;8742;51.716;8.790;2022-10-16T12:05:28;28.90;81.00
17252;DHT22;8742;51.716;8.790;2022-10-16T12:08:08;28.90;84.00
17252;DHT22;8742;51.716;8.790;2022-10-16T12:10:37;29.10;81.50
17252;DHT22;8742;51.716;8.790;2022-10-16T12:13:04;29.10;81.80
17252;DHT22;8742;51.716;8.790;2022-10-16T12:15:32;29.10;81.00
17252;DHT22;8742;51.716;8.790;2022-10-16T12:18:01;29.20;82.60
17252;DHT22;8742;51.716;8.790;2022-10-16T12:20:30;29.20;81.10
17252;DHT22;8742;51.716;8.790;2022-10-16T12:23:00;29.30;79.90
17252;DHT22;8742;51.716;8.790;2022-10-16T12:25:31;29.40;79.70
17252;DHT22;8742;51.716;8.790;2022-10-16T12:28:04;29.40;79.40
17252;DHT22;8742;51.716;8.790;2022-10-16T12:30:34;29.50;79.10
17252;DHT22;8742;51.716;8.790;2022-10-16T12:33:03;29.60;77.70
17252;DHT22;8742;51.716;8.790;2022-10-16T12:35:33;29.70;80.10
17252;DHT22;8742;51.716;8.790;2022-10-16T12:38:08;29.90;80.60
17252;DHT22;8742;51.716;8.790;2022-10-16T12:40:42;30.20;81.50
17252;DHT22;8742;51.716;8.790;2022-10-16T12:43:25;30.30;77.60
17252;DHT22;8742;51.716;8.790;2022-10-16T12:46:02;30.30;77.90
17252;DHT22;8742;51.716;8.790;2022-10-16T12:48:29;30.30;72.80
17252;DHT22;8742;51.716;8.790;2022-10-16T12:50:57;30.20;77.50
17252;DHT22;8742;51.716;8.790;2022-10-16T12:53:25;30.10;74.50
17252;DHT22;8742;51.716;8.790;2022-10-16T12:56:03;29.30;79.10
17252;DHT22;8742;51.716;8.790;2022-10-16T12:58:49;28.20;77.90
17252;DHT22;8742;51.716;8.790;2022-10-16T13:01:31;26.90;79.50
17252;DHT22;8742;51.716;8.790;2022-10-16T13:04:10;25.90;83.00
17252;DHT22;8742;51.716;8.790;2022-10-16T13:06:47;25.00;85.30
17252;DHT22;8742;51.716;8.790;2022-10-16T13:09:29;24.40;84.40
17252;DHT22;8742;51.716;8.790;2022-10-16T13:12:15;23.80;87.10
17252;DHT22;8742;51.716;8.790;2022-10-16T13:15:03;23.40;88.90
17252;DHT22;8742;51.716;8.790;2022-10-16T13:17:40;23.20;89.40
17252;DHT22;8742;51.716;8.790;2022-10-16T13:20:17;23.20;90.30
17252;DHT22;8742;51.716;8.790;2022-10-16T13:22:53;23.20;90.00
17252;DHT22;8742;51.716;8.790;2022-10-16T13:25:32;23.40;90.00
17252;DHT22;8742;51.716;8.790;2022-10-16T13:28:02;23.80;89.60
17252;DHT22;8742;51.716;8.790;2022-10-16T13:30:31;23.90;88.20
17252;DHT22;8742;51.716;8.790;2022-10-16T13:33:03;23.90;88.90
17252;DHT22;8742;51.716;8.790;2022-10-16T13:35:32;23.90;89.20
17252;DHT22;8742;51.716;8.790;2022-10-16T13:38:12;23.80;89.60
17252;DHT22;8742;51.716;8.790;2022-10-16T13:40:55;23.70;90.20
17252;DHT22;8742;51.716;8.790;2022-10-16T13:43:27;23.90;90.10
17252;DHT22;8742;51.716;8.790;2022-10-16T13:45:57;24.00;90.30
17252;DHT22;8742;51.716;8.790;2022-10-16T13:48:24;24.00;90.20
17252;DHT22;8742;51.716;8.790;2022-10-16T13:51:06;23.90;90.90
17252;DHT22;8742;51.716;8.790;2022-10-16T13:53:34;23.80;90.40
17252;DHT22;8742;51.716;8.790;2022-10-16T13:56:06;23.60;90.30
17252;DHT22;8742;51.716;8.790;2022-10-16T13:58:35;23.30;91.30
17252;DHT22;8742;51.716;8.790;2022-10-16T14:01:03;23.60;92.10
17252;DHT22;8742;51.716;8.790;2022-10-16T14:03:32;24.00;92.20
17252;DHT22;8742;51.716;8.790;2022-10-16T14:06:02;24.50;92.30
17252;DHT22;8742;51.716;8.790;2022-10-16T14:08:30;24.80;92.00
17252;DHT22;8742;51.716;8.790;2022-10-16T14:10:59;24.70;92.10
17252;DHT22;8742;51.716;8.790;2022-10-16T14:13:31;24.50;92.00
17252;DHT22;8742;51.716;8.790;2022-10-16T14:16:06;24.40;92.00
17252;DHT22;8742;51.716;8.790;2022-10-16T14:18:34;24.10;92.70
17252;DHT22;8742;51.716;8.790;2022-10-16T14:21:05;24.30;93.00
17252;DHT22;8742;51.716;8.790;2022-10-16T14:23:35;24.80;92.20
17252;DHT22;8742;51.716;8.790;2022-10-16T14:26:13;25.70;93.10
17252;DHT22;8742;51.716;8.790;2022-10-16T14:28:42;26.60;93.10
17252;DHT22;8742;51.716;8.790;2022-10-16T14:31:27;27.30;90.90
17252;DHT22;8742;51.716;8.790;2022-10-16T14:33:54;27.90;88.60
17252;DHT22;8742;51.716;8.790;2022-10-16T14:36:21;28.10;88.30
17252;DHT22;8742;51.716;8.790;2022-10-16T14:38:56;28.40;88.10
17252;DHT22;8742;51.716;8.790;2022-10-16T14:41:23;28.60;89.60
17252;DHT22;8742;51.716;8.790;2022-10-16T14:43:53;28.70;88.40
17252;DHT22;8742;51.716;8.790;2022-10-16T14:46:22;28.40;88.60
17252;DHT22;8742;51.716;8.790;2022-10-16T14:49:00;28.40;90.00
17252;DHT22;8742;51.716;8.790;2022-10-16T14:51:29;28.70;90.50
17252;DHT22;8742;51.716;8.790;2022-10-16T14:53:56;28.90;91.40
17252;DHT22;8742;51.716;8.790;2022-10-16T14:56:25;29.20;90.70
17252;DHT22;8742;51.716;8.790;2022-10-16T14:58:53;29.40;90.20
17252;DHT22;8742;51.716;8.790;2022-10-16T15:01:20;29.50;89.70
17252;DHT22;8742;51.716;8.790;2022-10-16T15:03:47;29.40;87.60
17252;DHT22;8742;51.716;8.790;2022-10-16T15:06:16;28.60;85.90
17252;DHT22;8742;51.716;8.790;2022-10-16T15:08:43;27.70;87.40
17252;DHT22;8742;51.716;8.790;2022-10-16T15:11:12;26.70;89.20
17252;DHT22;8742;51.716;8.790;2022-10-16T15:13:39;25.80;90.30
17252;DHT22;8742;51.716;8.790;2022-10-16T15:16:09;24.80;90.90
17252;DHT22;8742;51.716;8.790;2022-10-16T15:18:37;24.10;91.70
17252;DHT22;8742;51.716;8.790;2022-10-16T15:21:04;23.50;92.60
17252;DHT22;8742;51.716;8.790;2022-10-16T15:23:32;23.20;93.00
17252;DHT22;8742;51.716;8.790;2022-10-16T15:25:59;23.00;93.20
17252;DHT22;8742;51.716;8.790;2022-10-16T15:28:26;22.70;93.40
17252;DHT22;8742;51.716;8.790;2022-10-16T15:30:55;22.40;93.70
17252;DHT22;8742;51.716;8.790;2022-10-16T15:33:24;22.30;94.20
17252;DHT22;8742;51.716;8.790;2022-10-16T15:35:53;22.30;94.40
17252;DHT22;8742;51.716;8.790;2022-10-16T15:38:21;22.10;94.30
17252;DHT22;8742;51.716;8.790;2022-10-16T15:40:50;21.80;94.60
17252;DHT22;8742;51.716;8.790;2022-10-16T15:43:17;21.50;94.80
17252;DHT22;8742;51.716;8.790;2022-10-16T15:45:44;21.20;95.00
17252;DHT22;8742;51.716;8.790;2022-10-16T15:48:12;20.90;95.30
17252;DHT22;8742;51.716;8.790;2022-10-16T15:50:39;20.60;95.50
17252;DHT22;8742;51.716;8.790;2022-10-16T15:53:06;20.30;96.00
17252;DHT22;8742;51.716;8.790;2022-10-16T15:55:33;20.00;95.70
17252;DHT22;8742;51.716;8.790;2022-10-16T15:58:03;19.80;95.90
17252;DHT22;8742;51.716;8.790;2022-10-16T16:00:30;19.50;96.20
17252;DHT22;8742;51.716;8.790;2022-10-16T16:02:56;19.20;96.50
17252;DHT22;8742;51.716;8.790;2022-10-16T16:05:23;19.00;96.80
17252;DHT22;8742;51.716;8.790;2022-10-16T16:07:50;18.80;97.00
17252;DHT22;8742;51.716;8.790;2022-10-16T16:10:18;18.60;97.20
17252;DHT22;8742;51.716;8.790;2022-10-16T16:12:46;18.40;97.40
17252;DHT22;8742;51.716;8.790;2022-10-16T16:15:19;18.30;97.70
17252;DHT22;8742;51.716;8.790;2022-10-16T16:17:46;18.10;97.70
17252;DHT22;8742;51.716;8.790;2022-10-16T16:20:13;17.90;97.70